sensor_id;sensor_type;location;lat;lon;timestamp;pressure;altitude;pressure_sealevel;temperature;humidity
48846;BME280;34665;51.886;5.436;2023-03-20T00:02:06;101804.00;;;15.65;100.00
48846;BME280;34665;51.886;5.436;2023-03-20T00:04:32;101800.34;;;15.93;100.00
48846;BME280;34665;51.886;5.436;2023-03-20T00:06:57;101793.97;;;15.11;100.00
48846;BME280;34665;51.886;5.436;2023-03-20T00:09:23;101799.59;;;15.23;100.00
48846;BME280;34665;51.886;5.436;2023-03-20T00:11:50;101795.47;;;15.41;100.00
48846;BME280;34665;51.886;5.436;2023-03-20T00:14:17;101801.53;;;15.70;100.00
48846;BME280;34665;51.886;5.436;2023-03-20T00:16:44;101792.81;;;15.61;100.00
48846;BME280;34665;51.886;5.436;2023-03-20T00:19:14;101799.59;;;15.23;100.00
48846;BME280;34665;51.886;5.436;2023-03-20T00:21:40;101787.88;;;14.96;100.00
48846;BME280;34665;51.886;5.436;2023-03-20T00:24:06;101790.91;;;14.79;100.00
48846;BME280;34665;51.886;5.436;2023-03-20T00:26:33;101792.94;;;15.12;100.00
48846;BME280;34665;51.886;5.436;2023-03-20T00:29:00;101792.94;;;15.12;100.00
48846;BME280;34665;51.886;5.436;2023-03-20T00:31:27;101786.75;;;15.25;100.00
48846;BME280;34665;51.886;5.436;2023-03-20T00:33:54;101779.91;;;15.43;100.00
48846;BME280;34665;51.886;5.436;2023-03-20T00:36:21;101776.91;;;14.97;100.00
48846;BME280;34665;51.886;5.436;2023-03-20T00:38:47;101769.34;;;15.34;100.00
48846;BME280;34665;51.886;5.436;2023-03-20T00:41:17;101774.50;;;15.29;100.00
48846;BME280;34665;51.886;5.436;2023-03-20T00:43:46;101761.69;;;15.65;100.00
48846;BME280;34665;51.886;5.436;2023-03-20T00:46:12;101765.41;;;15.44;100.00
48846;BME280;34665;51.886;5.436;2023-03-20T00:48:38;101779.91;;;15.29;100.00
48846;BME280;34665;51.886;5.436;2023-03-20T00:51:05;101788.66;;;15.85;100.00
48846;BME280;34665;51.886;5.436;2023-03-20T00:53:30;101795.00;;;15.24;100.00
48846;BME280;34665;51.886;5.436;2023-03-20T00:55:55;101802.66;;;15.13;100.00
48846;BME280;34665;51.886;5.436;2023-03-20T00:58:21;101796.34;;;15.68;100.00
48846;BME280;34665;51.886;5.436;2023-03-20T01:00:46;101811.66;;;15.54;100.00
48846;BME280;34665;51.886;5.436;2023-03-20T01:03:16;101808.25;;;15.12;100.00
48846;BME280;34665;51.886;5.436;2023-03-20T01:05:44;101815.19;;;15.55;100.00
48846;BME280;34665;51.886;5.436;2023-03-20T01:08:13;101808.06;;;15.20;100.00
48846;BME280;34665;51.886;5.436;2023-03-20T01:10:39;101809.06;;;15.05;100.00
48846;BME280;34665;51.886;5.436;2023-03-20T01:13:05;101825.06;;;15.20;100.00
48846;BME280;34665;51.886;5.436;2023-03-20T01:15:34;101824.09;;;15.35;100.00
48846;BME280;34665;51.886;5.436;2023-03-20T01:18:01;101827.59;;;15.36;100.00
48846;BME280;34665;51.886;5.436;2023-03-20T01:20:28;101826.78;;;15.42;100.00
48846;BME280;34665;51.886;5.436;2023-03-20T01:22:53;101827.28;;;15.86;100.00
48846;BME280;34665;51.886;5.436;2023-03-20T01:25:19;101824.97;;;15.76;100.00
48846;BME280;34665;51.886;5.436;2023-03-20T01:27:49;101823.56;;;15.04;100.00
48846;BME280;34665;51.886;5.436;2023-03-20T01:32:43;101812.34;;;14.59;100.00
48846;BME280;34665;51.886;5.436;2023-03-20T01:35:11;101803.41;;;14.58;100.00
48846;BME280;34665;51.886;5.436;2023-03-20T01:37:37;101815.50;;;15.11;100.00
48846;BME280;34665;51.886;5.436;2023-03-20T01:40:02;101816.75;;;15.22;100.00
48846;BME280;34665;51.886;5.436;2023-03-20T01:42:31;101813.31;;;14.80;100.00
48846;BME280;34665;51.886;5.436;2023-03-20T01:44:57;101806.81;;;15.16;100.00
48846;BME280;34665;51.886;5.436;2023-03-20T01:47:24;101812.16;;;15.09;100.00
48846;BME280;34665;51.886;5.436;2023-03-20T01:50:13;101810.75;;;15.20;100.00
48846;BME280;34665;51.886;5.436;2023-03-20T01:52:42;101809.59;;;14.81;100.00
48846;BME280;34665;51.886;5.436;2023-03-20T01:55:09;101814.13;;;14.80;100.00
48846;BME280;34665;51.886;5.436;2023-03-20T01:57:36;101809.06;;;14.70;100.00
48846;BME280;34665;51.886;5.436;2023-03-20T02:00:04;101809.25;;;15.04;100.00
48846;BME280;34665;51.886;5.436;2023-03-20T02:02:40;101800.97;;;15.05;100.00
48846;BME280;34665;51.886;5.436;2023-03-20T02:05:08;101800.75;;;15.00;100.00
48846;BME280;34665;51.886;5.436;2023-03-20T02:07:35;101798.50;;;15.11;100.00
48846;BME280;34665;51.886;5.436;2023-03-20T02:10:09;101801.59;;;15.08;100.00
48846;BME280;34665;51.886;5.436;2023-03-20T02:12:46;101804.84;;;14.89;100.00
48846;BME280;34665;51.886;5.436;2023-03-20T02:15:17;101805.31;;;15.00;100.00
48846;BME280;34665;51.886;5.436;2023-03-20T02:18:03;101797.84;;;14.60;100.00
48846;BME280;34665;51.886;5.436;2023-03-20T02:20:40;101815.16;;;14.79;100.00
48846;BME280;34665;51.886;5.436;2023-03-20T02:35:54;101794.09;;;14.89;100.00
48846;BME280;34665;51.886;5.436;2023-03-20T02:43:35;101777.63;;;14.36;100.00
48846;BME280;34665;51.886;5.436;2023-03-20T02:46:18;101779.59;;;13.91;100.00
48846;BME280;34665;51.886;5.436;2023-03-20T02:48:53;101787.97;;;14.39;100.00
48846;BME280;34665;51.886;5.436;2023-03-20T02:51:21;101797.41;;;14.56;100.00
48846;BME280;34665;51.886;5.436;2023-03-20T02:53:51;101784.88;;;14.35;100.00
48846;BME280;34665;51.886;5.436;2023-03-20T02:56:30;101786.25;;;14.24;100.00
48846;BME280;34665;51.886;5.436;2023-03-20T03:01:35;101789.16;;;14.01;100.00
48846;BME280;34665;51.886;5.436;2023-03-20T03:04:06;101789.03;;;14.09;100.00
48846;BME280;34665;51.886;5.436;2023-03-20T03:06:34;101782.31;;;14.27;100.00
48846;BME280;34665;51.886;5.436;2023-03-20T03:09:13;101765.19;;;14.06;100.00
48846;BME280;34665;51.886;5.436;2023-03-20T03:11:46;101745.91;;;13.96;100.00
48846;BME280;34665;51.886;5.436;2023-03-20T03:14:20;101735.25;;;14.09;100.00
48846;BME280;34665;51.886;5.436;2023-03-20T03:16:48;101743.03;;;13.97;100.00
48846;BME280;34665;51.886;5.436;2023-03-20T03:19:17;101750.44;;;13.67;100.00
48846;BME280;34665;51.886;5.436;2023-03-20T03:21:45;101734.75;;;13.27;100.00
48846;BME280;34665;51.886;5.436;2023-03-20T03:26:49;101749.78;;;13.86;100.00
48846;BME280;34665;51.886;5.436;2023-03-20T03:29:15;101758.91;;;13.64;100.00
48846;BME280;34665;51.886;5.436;2023-03-20T03:31:42;101736.84;;;13.75;100.00
48846;BME280;34665;51.886;5.436;2023-03-20T03:34:11;101754.47;;;13.77;100.00
48846;BME280;34665;51.886;5.436;2023-03-20T03:41:40;101741.06;;;13.84;100.00
48846;BME280;34665;51.886;5.436;2023-03-20T03:49:06;101731.13;;;13.85;100.00
48846;BME280;34665;51.886;5.436;2023-03-20T03:51:35;101720.63;;;13.61;100.00
48846;BME280;34665;51.886;5.436;2023-03-20T03:54:08;101736.72;;;13.18;100.00
48846;BME280;34665;51.886;5.436;2023-03-20T03:56:36;101726.41;;;13.22;100.00
48846;BME280;34665;51.886;5.436;2023-03-20T03:59:04;101733.09;;;13.47;100.00
48846;BME280;34665;51.886;5.436;2023-03-20T04:01:32;101724.38;;;13.67;100.00
48846;BME280;34665;51.886;5.436;2023-03-20T04:04:00;101731.16;;;13.63;100.00
48846;BME280;34665;51.886;5.436;2023-03-20T04:06:28;101725.59;;;13.21;100.00
48846;BME280;34665;51.886;5.436;2023-03-20T04:08:53;101710.97;;;13.45;100.00
48846;BME280;34665;51.886;5.436;2023-03-20T04:11:20;101702.91;;;12.87;100.00
48846;BME280;34665;51.886;5.436;2023-03-20T04:13:47;101705.25;;;12.75;100.00
48846;BME280;34665;51.886;5.436;2023-03-20T04:16:14;101706.41;;;13.02;100.00
48846;BME280;34665;51.886;5.436;2023-03-20T04:18:42;101711.91;;;13.16;100.00
48846;BME280;34665;51.886;5.436;2023-03-20T04:21:11;101713.72;;;12.57;100.00
48846;BME280;34665;51.886;5.436;2023-03-20T04:23:36;101695.78;;;12.94;100.00
48846;BME280;34665;51.886;5.436;2023-03-20T04:26:03;101697.69;;;12.79;100.00
48846;BME280;34665;51.886;5.436;2023-03-20T04:28:32;101686.81;;;12.87;100.00
48846;BME280;34665;51.886;5.436;2023-03-20T04:31:09;101686.22;;;12.70;100.00
48846;BME280;34665;51.886;5.436;2023-03-20T04:34:00;101688.97;;;12.76;100.00
48846;BME280;34665;51.886;5.436;2023-03-20T04:36:40;101692.19;;;12.87;100.00
48846;BME280;34665;51.886;5.436;2023-03-20T04:39:08;101699.34;;;12.80;100.00
48846;BME280;34665;51.886;5.436;2023-03-20T04:41:33;101684.50;;;12.84;100.00
48846;BME280;34665;51.886;5.436;2023-03-20T04:43:58;101699.72;;;12.76;100.00
48846;BME280;34665;51.886;5.436;2023-03-20T04:46:24;101701.66;;;13.04;100.00
48846;BME280;34665;51.886;5.436;2023-03-20T04:48:51;101713.59;;;13.17;100.00
48846;BME280;34665;51.886;5.436;2023-03-20T04:51:17;101707.69;;;13.28;100.00
48846;BME280;34665;51.886;5.436;2023-03-20T04:53:47;101706.00;;;13.71;100.00
48846;BME280;34665;51.886;5.436;2023-03-20T04:56:12;101712.28;;;13.34;100.00
48846;BME280;34665;51.886;5.436;2023-03-20T04:58:38;101714.56;;;13.38;100.00
48846;BME280;34665;51.886;5.436;2023-03-20T05:01:03;101709.72;;;13.04;100.00
48846;BME280;34665;51.886;5.436;2023-03-20T05:03:29;101703.00;;;13.37;100.00
48846;BME280;34665;51.886;5.436;2023-03-20T05:05:55;101705.22;;;13.27;100.00
48846;BME280;34665;51.886;5.436;2023-03-20T05:08:21;101700.91;;;13.54;100.00
48846;BME280;34665;51.886;5.436;2023-03-20T05:10:48;101697.19;;;13.55;100.00
48846;BME280;34665;51.886;5.436;2023-03-20T05:13:33;101688.91;;;14.14;100.00
48846;BME280;34665;51.886;5.436;2023-03-20T05:16:18;101687.56;;;14.31;100.00
48846;BME280;34665;51.886;5.436;2023-03-20T05:19:11;101678.31;;;14.05;100.00
48846;BME280;34665;51.886;5.436;2023-03-20T05:22:06;101685.44;;;14.20;100.00
48846;BME280;34665;51.886;5.436;2023-03-20T05:25:01;101686.00;;;14.57;100.00
48846;BME280;34665;51.886;5.436;2023-03-20T05:27:46;101685.00;;;14.16;100.00
48846;BME280;34665;51.886;5.436;2023-03-20T05:30:33;101686.50;;;14.26;100.00
48846;BME280;34665;51.886;5.436;2023-03-20T05:33:18;101695.44;;;14.33;100.00
48846;BME280;34665;51.886;5.436;2023-03-20T05:36:02;101691.41;;;14.15;100.00
48846;BME280;34665;51.886;5.436;2023-03-20T05:38:46;101706.59;;;14.30;100.00
48846;BME280;34665;51.886;5.436;2023-03-20T05:41:37;101706.59;;;14.30;100.00
48846;BME280;34665;51.886;5.436;2023-03-20T05:44:28;101698.09;;;14.26;100.00
48846;BME280;34665;51.886;5.436;2023-03-20T05:47:09;101702.81;;;14.17;100.00
48846;BME280;34665;51.886;5.436;2023-03-20T05:49:48;101701.41;;;13.93;100.00
48846;BME280;34665;51.886;5.436;2023-03-20T05:52:25;101701.78;;;14.18;100.00
48846;BME280;34665;51.886;5.436;2023-03-20T05:55:11;101705.13;;;13.92;100.00
48846;BME280;34665;51.886;5.436;2023-03-20T05:57:55;101708.84;;;13.62;100.00
48846;BME280;34665;51.886;5.436;2023-03-20T06:00:27;101707.72;;;14.07;100.00
48846;BME280;34665;51.886;5.436;2023-03-20T06:03:13;101714.66;;;14.30;100.00
48846;BME280;34665;51.886;5.436;2023-03-20T06:05:55;101715.91;;;14.27;100.00
48846;BME280;34665;51.886;5.436;2023-03-20T06:08:21;101728.69;;;13.90;100.00
48846;BME280;34665;51.886;5.436;2023-03-20T06:10:48;101731.13;;;14.13;100.00
48846;BME280;34665;51.886;5.436;2023-03-20T06:13:14;101742.44;;;13.73;100.00
48846;BME280;34665;51.886;5.436;2023-03-20T06:15:39;101741.50;;;14.16;100.00
48846;BME280;34665;51.886;5.436;2023-03-20T06:18:13;101737.50;;;14.05;100.00
48846;BME280;34665;51.886;5.436;2023-03-20T06:20:39;101734.78;;;13.77;100.00
48846;BME280;34665;51.886;5.436;2023-03-20T06:23:05;101736.19;;;13.95;100.00
48846;BME280;34665;51.886;5.436;2023-03-20T06:25:31;101732.06;;;13.99;100.00
48846;BME280;34665;51.886;5.436;2023-03-20T06:27:57;101736.47;;;13.78;100.00
48846;BME280;34665;51.886;5.436;2023-03-20T06:30:23;101736.50;;;14.13;100.00
48846;BME280;34665;51.886;5.436;2023-03-20T06:32:49;101729.72;;;13.89;100.00
48846;BME280;34665;51.886;5.436;2023-03-20T06:35:16;101733.66;;;13.93;100.00
48846;BME280;34665;51.886;5.436;2023-03-20T06:37:45;101734.66;;;13.85;100.00
48846;BME280;34665;51.886;5.436;2023-03-20T06:40:17;101749.03;;;13.49;100.00
48846;BME280;34665;51.886;5.436;2023-03-20T06:42:43;101739.59;;;14.10;100.00
48846;BME280;34665;51.886;5.436;2023-03-20T06:45:09;101739.16;;;14.07;100.00
48846;BME280;34665;51.886;5.436;2023-03-20T06:47:56;101737.47;;;14.34;100.00
48846;BME280;34665;51.886;5.436;2023-03-20T06:50:22;101749.00;;;13.93;100.00
48846;BME280;34665;51.886;5.436;2023-03-20T06:52:48;101751.09;;;14.32;100.00
48846;BME280;34665;51.886;5.436;2023-03-20T06:55:32;101750.38;;;14.17;100.00
48846;BME280;34665;51.886;5.436;2023-03-20T06:57:58;101759.84;;;14.41;100.00
48846;BME280;34665;51.886;5.436;2023-03-20T07:00:25;101758.84;;;14.49;100.00
48846;BME280;34665;51.886;5.436;2023-03-20T07:02:50;101763.22;;;14.50;100.00
48846;BME280;34665;51.886;5.436;2023-03-20T07:05:17;101757.44;;;13.89;100.00
48846;BME280;34665;51.886;5.436;2023-03-20T07:07:43;101761.75;;;14.12;100.00
48846;BME280;34665;51.886;5.436;2023-03-20T07:10:10;101761.47;;;14.00;100.00
48846;BME280;34665;51.886;5.436;2023-03-20T07:12:36;101780.81;;;13.89;100.00
48846;BME280;34665;51.886;5.436;2023-03-20T07:15:02;101770.91;;;13.89;100.00
48846;BME280;34665;51.886;5.436;2023-03-20T07:17:28;101775.97;;;13.77;100.00
48846;BME280;34665;51.886;5.436;2023-03-20T07:19:54;101775.38;;;13.82;100.00
48846;BME280;34665;51.886;5.436;2023-03-20T07:22:23;101763.78;;;13.82;100.00
48846;BME280;34665;51.886;5.436;2023-03-20T07:24:51;101765.00;;;13.79;100.00
48846;BME280;34665;51.886;5.436;2023-03-20T07:27:18;101762.91;;;14.03;100.00
48846;BME280;34665;51.886;5.436;2023-03-20T07:29:44;101776.53;;;14.30;100.00
48846;BME280;34665;51.886;5.436;2023-03-20T07:32:13;101763.00;;;14.52;100.00
48846;BME280;34665;51.886;5.436;2023-03-20T07:34:46;101770.16;;;14.38;100.00
48846;BME280;34665;51.886;5.436;2023-03-20T07:37:12;101767.78;;;14.56;100.00
48846;BME280;34665;51.886;5.436;2023-03-20T07:39:41;101773.34;;;14.48;100.00
48846;BME280;34665;51.886;5.436;2023-03-20T07:42:26;101773.66;;;14.31;100.00
48846;BME280;34665;51.886;5.436;2023-03-20T07:44:57;101773.41;;;14.61;100.00
48846;BME280;34665;51.886;5.436;2023-03-20T07:47:23;101770.53;;;14.63;100.00
48846;BME280;34665;51.886;5.436;2023-03-20T07:49:48;101775.50;;;14.66;100.00
48846;BME280;34665;51.886;5.436;2023-03-20T07:52:14;101776.41;;;14.80;100.00
48846;BME280;34665;51.886;5.436;2023-03-20T07:54:39;101768.16;;;14.46;100.00
48846;BME280;34665;51.886;5.436;2023-03-20T07:57:05;101761.38;;;14.57;100.00
48846;BME280;34665;51.886;5.436;2023-03-20T07:59:31;101765.16;;;15.18;100.00
48846;BME280;34665;51.886;5.436;2023-03-20T08:01:56;101759.97;;;15.17;100.00
48846;BME280;34665;51.886;5.436;2023-03-20T08:04:21;101761.84;;;14.68;100.00
48846;BME280;34665;51.886;5.436;2023-03-20T08:06:47;101764.59;;;14.39;100.00
48846;BME280;34665;51.886;5.436;2023-03-20T08:09:13;101768.19;;;14.95;100.00
48846;BME280;34665;51.886;5.436;2023-03-20T08:11:39;101772.44;;;15.31;100.00
48846;BME280;34665;51.886;5.436;2023-03-20T08:14:04;101763.25;;;14.63;100.00
48846;BME280;34665;51.886;5.436;2023-03-20T08:16:30;101771.31;;;14.22;100.00
48846;BME280;34665;51.886;5.436;2023-03-20T08:18:55;101767.41;;;15.01;100.00
48846;BME280;34665;51.886;5.436;2023-03-20T08:21:28;101769.72;;;15.25;100.00
48846;BME280;34665;51.886;5.436;2023-03-20T08:23:53;101772.97;;;15.00;100.00
48846;BME280;34665;51.886;5.436;2023-03-20T08:26:19;101774.44;;;15.02;100.00
48846;BME280;34665;51.886;5.436;2023-03-20T08:28:44;101770.06;;;14.95;100.00
48846;BME280;34665;51.886;5.436;2023-03-20T08:31:10;101773.63;;;15.09;99.99
48846;BME280;34665;51.886;5.436;2023-03-20T08:33:35;101764.25;;;14.49;100.00
48846;BME280;34665;51.886;5.436;2023-03-20T08:36:01;101761.41;;;14.64;100.00
48846;BME280;34665;51.886;5.436;2023-03-20T08:38:26;101772.25;;;13.79;100.00
48846;BME280;34665;51.886;5.436;2023-03-20T08:40:52;101764.09;;;13.94;100.00
48846;BME280;34665;51.886;5.436;2023-03-20T08:43:19;101768.31;;;13.81;100.00
48846;BME280;34665;51.886;5.436;2023-03-20T08:45:44;101758.16;;;14.05;100.00
48846;BME280;34665;51.886;5.436;2023-03-20T08:48:10;101772.38;;;13.70;100.00
48846;BME280;34665;51.886;5.436;2023-03-20T08:50:36;101759.19;;;14.32;100.00
48846;BME280;34665;51.886;5.436;2023-03-20T08:53:02;101766.16;;;14.27;100.00
48846;BME280;34665;51.886;5.436;2023-03-20T08:55:27;101758.66;;;14.15;100.00
48846;BME280;34665;51.886;5.436;2023-03-20T08:57:53;101762.97;;;14.45;100.00
48846;BME280;34665;51.886;5.436;2023-03-20T09:00:21;101765.59;;;14.31;100.00
48846;BME280;34665;51.886;5.436;2023-03-20T09:02:47;101761.97;;;14.46;100.00
48846;BME280;34665;51.886;5.436;2023-03-20T09:05:14;101757.41;;;14.11;100.00
48846;BME280;34665;51.886;5.436;2023-03-20T09:07:39;101764.06;;;14.93;100.00
48846;BME280;34665;51.886;5.436;2023-03-20T09:10:05;101760.34;;;14.58;100.00
48846;BME280;34665;51.886;5.436;2023-03-20T09:12:31;101760.56;;;14.57;100.00
48846;BME280;34665;51.886;5.436;2023-03-20T09:14:57;101769.75;;;14.34;100.00
48846;BME280;34665;51.886;5.436;2023-03-20T09:17:22;101778.66;;;14.34;100.00
48846;BME280;34665;51.886;5.436;2023-03-20T09:19:47;101780.75;;;14.11;100.00
48846;BME280;34665;51.886;5.436;2023-03-20T09:22:13;101781.00;;;13.87;100.00
48846;BME280;34665;51.886;5.436;2023-03-20T09:24:39;101781.00;;;13.87;100.00
48846;BME280;34665;51.886;5.436;2023-03-20T09:27:05;101774.16;;;14.13;100.00
48846;BME280;34665;51.886;5.436;2023-03-20T09:29:30;101776.31;;;14.25;100.00
48846;BME280;34665;51.886;5.436;2023-03-20T09:31:56;101779.69;;;14.05;100.00
48846;BME280;34665;51.886;5.436;2023-03-20T09:34:21;101780.00;;;13.95;100.00
48846;BME280;34665;51.886;5.436;2023-03-20T09:36:48;101767.19;;;13.90;100.00
48846;BME280;34665;51.886;5.436;2023-03-20T09:39:15;101779.50;;;14.35;100.00
48846;BME280;34665;51.886;5.436;2023-03-20T09:41:45;101775.38;;;14.39;100.00
48846;BME280;34665;51.886;5.436;2023-03-20T09:44:13;101774.47;;;14.25;100.00
48846;BME280;34665;51.886;5.436;2023-03-20T09:51:52;101781.09;;;14.29;100.00
48846;BME280;34665;51.886;5.436;2023-03-20T09:54:34;101779.53;;;14.77;100.00
48846;BME280;34665;51.886;5.436;2023-03-20T09:57:01;101789.13;;;14.58;100.00
48846;BME280;34665;51.886;5.436;2023-03-20T09:59:27;101776.00;;;14.76;100.00
48846;BME280;34665;51.886;5.436;2023-03-20T10:01:56;101776.28;;;14.88;100.00
48846;BME280;34665;51.886;5.436;2023-03-20T10:04:27;101776.47;;;14.16;100.00
48846;BME280;34665;51.886;5.436;2023-03-20T10:06:53;101773.13;;;14.43;100.00
48846;BME280;34665;51.886;5.436;2023-03-20T10:09:26;101773.19;;;14.56;100.00
48846;BME280;34665;51.886;5.436;2023-03-20T10:14:20;101767.34;;;14.46;100.00
48846;BME280;34665;51.886;5.436;2023-03-20T10:19:39;101757.88;;;14.57;100.00
48846;BME280;34665;51.886;5.436;2023-03-20T10:24:38;101774.16;;;14.48;100.00
48846;BME280;34665;51.886;5.436;2023-03-20T10:27:19;101764.03;;;14.15;100.00
48846;BME280;34665;51.886;5.436;2023-03-20T10:32:14;101761.28;;;14.37;100.00
48846;BME280;34665;51.886;5.436;2023-03-20T10:39:38;101766.22;;;14.05;100.00
48846;BME280;34665;51.886;5.436;2023-03-20T10:42:10;101776.34;;;14.03;100.00
48846;BME280;34665;51.886;5.436;2023-03-20T10:44:38;101777.59;;;14.00;100.00
48846;BME280;34665;51.886;5.436;2023-03-20T10:47:05;101758.91;;;14.20;100.00
48846;BME280;34665;51.886;5.436;2023-03-20T10:52:17;101757.16;;;14.41;100.00
48846;BME280;34665;51.886;5.436;2023-03-20T10:54:44;101750.03;;;14.62;100.00
48846;BME280;34665;51.886;5.436;2023-03-20T10:57:13;101757.19;;;14.48;100.00
48846;BME280;34665;51.886;5.436;2023-03-20T10:59:42;101757.25;;;15.03;100.00
48846;BME280;34665;51.886;5.436;2023-03-20T11:02:10;101751.38;;;14.44;100.00
48846;BME280;34665;51.886;5.436;2023-03-20T11:04:35;101748.94;;;14.91;100.00
48846;BME280;34665;51.886;5.436;2023-03-20T11:09:45;101744.13;;;14.87;100.00
48846;BME280;34665;51.886;5.436;2023-03-20T11:12:15;101743.19;;;14.66;100.00
48846;BME280;34665;51.886;5.436;2023-03-20T11:14:42;101746.47;;;14.61;100.00
48846;BME280;34665;51.886;5.436;2023-03-20T11:17:11;101736.25;;;14.43;100.00
48846;BME280;34665;51.886;5.436;2023-03-20T11:19:38;101750.00;;;15.04;100.00
48846;BME280;34665;51.886;5.436;2023-03-20T11:22:08;101743.38;;;14.65;100.00
48846;BME280;34665;51.886;5.436;2023-03-20T11:27:05;101751.72;;;14.34;100.00
48846;BME280;34665;51.886;5.436;2023-03-20T11:29:31;101740.78;;;14.78;100.00
48846;BME280;34665;51.886;5.436;2023-03-20T11:32:04;101732.78;;;15.05;100.00
48846;BME280;34665;51.886;5.436;2023-03-20T11:34:30;101728.59;;;14.89;100.00
48846;BME280;34665;51.886;5.436;2023-03-20T11:36:59;101743.38;;;15.07;100.00
48846;BME280;34665;51.886;5.436;2023-03-20T11:39:27;101723.81;;;14.77;100.00
48846;BME280;34665;51.886;5.436;2023-03-20T11:41:57;101727.69;;;15.57;100.00
48846;BME280;34665;51.886;5.436;2023-03-20T11:46:55;101713.97;;;15.18;100.00
48846;BME280;34665;51.886;5.436;2023-03-20T11:49:23;101712.34;;;15.51;100.00
48846;BME280;34665;51.886;5.436;2023-03-20T11:51:56;101720.22;;;15.53;100.00
48846;BME280;34665;51.886;5.436;2023-03-20T11:54:24;101714.16;;;15.17;100.00
48846;BME280;34665;51.886;5.436;2023-03-20T11:56:57;101713.53;;;15.15;100.00
48846;BME280;34665;51.886;5.436;2023-03-20T11:59:29;101729.66;;;14.95;100.00
48846;BME280;34665;51.886;5.436;2023-03-20T12:01:57;101722.75;;;14.72;100.00
48846;BME280;34665;51.886;5.436;2023-03-20T12:09:38;101700.47;;;15.12;100.00
48846;BME280;34665;51.886;5.436;2023-03-20T12:14:52;101713.34;;;15.16;100.00
48846;BME280;34665;51.886;5.436;2023-03-20T12:19:45;101704.66;;;15.34;100.00
48846;BME280;34665;51.886;5.436;2023-03-20T12:22:18;101698.22;;;15.69;100.00
48846;BME280;34665;51.886;5.436;2023-03-20T12:25:03;101705.09;;;15.72;100.00
48846;BME280;34665;51.886;5.436;2023-03-20T12:27:34;101704.44;;;15.43;100.00
48846;BME280;34665;51.886;5.436;2023-03-20T12:32:40;101703.63;;;15.36;100.00
48846;BME280;34665;51.886;5.436;2023-03-20T12:35:10;101694.50;;;15.57;100.00
48846;BME280;34665;51.886;5.436;2023-03-20T12:37:37;101697.81;;;15.39;100.00
48846;BME280;34665;51.886;5.436;2023-03-20T12:40:03;101685.38;;;15.71;100.00
48846;BME280;34665;51.886;5.436;2023-03-20T12:42:35;101707.34;;;15.82;100.00
48846;BME280;34665;51.886;5.436;2023-03-20T12:45:10;101687.44;;;15.36;100.00
48846;BME280;34665;51.886;5.436;2023-03-20T12:50:25;101680.19;;;15.43;100.00
48846;BME280;34665;51.886;5.436;2023-03-20T12:55:42;101661.31;;;15.70;100.00
48846;BME280;34665;51.886;5.436;2023-03-20T12:59:10;101668.56;;;15.62;100.00
48846;BME280;34665;51.886;5.436;2023-03-20T13:01:09;101662.13;;;15.70;100.00
48846;BME280;34665;51.886;5.436;2023-03-20T13:06:26;101670.00;;;15.92;100.00
48846;BME280;34665;51.886;5.436;2023-03-20T13:09:03;101655.88;;;16.03;100.00
48846;BME280;34665;51.886;5.436;2023-03-20T13:11:36;101654.25;;;15.89;100.00
48846;BME280;34665;51.886;5.436;2023-03-20T13:14:17;101668.75;;;15.81;100.00
48846;BME280;34665;51.886;5.436;2023-03-20T13:16:50;101667.13;;;15.94;100.00
48846;BME280;34665;51.886;5.436;2023-03-20T13:21:55;101659.88;;;15.54;100.00
48846;BME280;34665;51.886;5.436;2023-03-20T13:24:34;101649.72;;;15.49;100.00
48846;BME280;34665;51.886;5.436;2023-03-20T13:27:04;101645.56;;;15.60;100.00
48846;BME280;34665;51.886;5.436;2023-03-20T13:29:35;101654.28;;;15.35;100.00
48846;BME280;34665;51.886;5.436;2023-03-20T13:34:58;101648.47;;;15.04;100.00
48846;BME280;34665;51.886;5.436;2023-03-20T13:47:50;101627.34;;;15.28;100.00
48846;BME280;34665;51.886;5.436;2023-03-20T13:50:23;101629.34;;;15.67;100.00
48846;BME280;34665;51.886;5.436;2023-03-20T13:55:53;101624.66;;;15.35;100.00
48846;BME280;34665;51.886;5.436;2023-03-20T13:58:27;101622.16;;;15.47;100.00
48846;BME280;34665;51.886;5.436;2023-03-20T14:03:35;101630.63;;;15.10;100.00
48846;BME280;34665;51.886;5.436;2023-03-20T14:06:24;101620.09;;;15.09;100.00
48846;BME280;34665;51.886;5.436;2023-03-20T14:09:02;101622.34;;;14.91;100.00
48846;BME280;34665;51.886;5.436;2023-03-20T14:11:29;101610.34;;;15.08;100.00
48846;BME280;34665;51.886;5.436;2023-03-20T14:14:06;101616.97;;;15.39;100.00
48846;BME280;34665;51.886;5.436;2023-03-20T14:16:32;101612.81;;;15.16;100.00
48846;BME280;34665;51.886;5.436;2023-03-20T14:19:05;101603.69;;;15.24;100.00
48846;BME280;34665;51.886;5.436;2023-03-20T14:21:32;101600.59;;;15.20;100.00
48846;BME280;34665;51.886;5.436;2023-03-20T14:24:02;101603.69;;;14.90;100.00
48846;BME280;34665;51.886;5.436;2023-03-20T14:26:29;101599.13;;;14.97;100.00
48846;BME280;34665;51.886;5.436;2023-03-20T14:28:59;101603.28;;;15.00;100.00
48846;BME280;34665;51.886;5.436;2023-03-20T14:33:57;101604.53;;;15.17;100.00
48846;BME280;34665;51.886;5.436;2023-03-20T14:36:28;101596.78;;;14.54;100.00
48846;BME280;34665;51.886;5.436;2023-03-20T14:39:05;101609.34;;;14.40;100.00
48846;BME280;34665;51.886;5.436;2023-03-20T14:44:27;101605.16;;;14.86;100.00
48846;BME280;34665;51.886;5.436;2023-03-20T14:46:58;101607.44;;;15.02;100.00
48846;BME280;34665;51.886;5.436;2023-03-20T14:54:53;101612.81;;;15.49;100.00